MDT,Max TemperatureF,Mean TemperatureF,Min TemperatureF,Max Dew PointF,MeanDew PointF,Min DewpointF,Max Humidity, Mean Humidity, Min Humidity, Max Sea Level PressureIn, Mean Sea Level PressureIn, Min Sea Level PressureIn, Max VisibilityMiles, Mean VisibilityMiles, Min VisibilityMiles, Max Wind SpeedMPH, Mean Wind SpeedMPH, Max Gust SpeedMPH,PrecipitationIn, CloudCover, Events, WindDirDegrees
2013-9-1,93,72,51,43,37,33,50,32,13,30.09,29.98,29.86,10,10,10,17,4,20,0.00,0,,30
2013-9-2,84,68,52,52,41,37,63,43,22,29.95,29.90,29.86,10,10,10,16,3,21,0.00,0,,288
2013-9-3,90,75,59,57,45,39,73,47,20,30.13,30.04,29.96,10,10,10,24,3,31,T,2,,296
2013-9-4,88,75,61,57,53,49,78,54,29,30.15,30.08,30.01,10,10,10,15,4,18,0.00,1,,108
2013-9-5,86,72,58,63,53,48,78,56,34,30.07,30.02,29.95,10,10,8,30,4,37,0.02,2,Rain-Thunderstorm,284
2013-9-6,85,72,58,61,57,52,93,65,36,30.06,30.01,29.92,10,10,10,26,5,30,0.09,2,Rain-Thunderstorm,284
2013-9-7,81,72,62,61,57,55,84,63,42,30.14,30.06,29.96,10,10,10,16,6,18,0.01,5,Rain-Thunderstorm,305
2013-9-8,75,66,57,57,51,41,87,63,38,30.06,29.98,29.91,10,10,9,28,7,36,0.04,3,Rain-Thunderstorm,289
2013-9-9,77,66,54,49,45,41,67,48,29,30.06,29.99,29.95,10,10,8,20,8,24,T,5,,285
2013-9-10,83,65,47,48,43,39,86,54,22,30.16,30.09,30.03,10,10,10,9,2,15,0.00,0,,83
2013-9-11,85,67,49,46,43,40,71,48,24,30.26,30.20,30.13,10,10,10,17,5,20,0.00,0,,323
2013-9-12,87,71,54,45,43,39,66,43,20,30.26,30.13,29.99,10,10,10,12,3,14,0.00,0,,297
2013-9-13,87,72,56,47,45,41,67,45,22,29.98,29.87,29.76,10,10,10,13,5,15,0.00,1,,324
2013-9-14,78,69,60,47,46,44,56,46,35,30.09,29.99,29.83,10,10,10,22,9,28,0.00,1,,316
2013-9-15,84,68,51,48,45,42,71,50,28,30.12,30.00,29.87,10,10,10,21,5,24,0.00,0,,150
2013-9-16,87,70,53,51,46,40,72,47,22,29.89,29.80,29.69,10,10,10,24,7,35,0.00,1,Thunderstorm,220
2013-9-17,63,57,50,54,48,42,93,69,44,29.83,29.76,29.67,10,9,5,16,4,21,0.19,3,Rain,257
2013-9-18,65,57,48,49,39,32,93,64,34,30.08,29.86,29.68,10,10,10,26,10,32,0.00,6,,276
2013-9-19,68,56,43,39,35,29,83,55,26,30.21,30.14,30.09,10,10,10,16,5,20,0.00,3,,286
2013-9-20,79,58,37,37,33,21,79,46,12,30.09,29.94,29.75,10,10,10,18,2,29,0.00,0,,127
2013-9-21,82,62,41,36,32,28,58,37,15,29.75,29.66,29.52,10,10,10,16,4,20,0.00,0,,290
2013-9-22,70,59,47,46,39,33,77,55,32,29.74,29.65,29.59,10,10,7,22,7,28,0.03,4,Rain,260
2013-9-23,64,53,42,40,34,26,83,54,25,29.97,29.89,29.74,10,10,10,30,8,37,0.00,2,,270
2013-9-24,53,47,41,45,37,32,93,71,48,29.96,29.89,29.82,10,9,3,10,3,14,0.63,5,Rain,198
2013-9-25,51,46,40,42,39,36,93,85,76,29.85,29.78,29.71,10,10,6,21,8,24,0.32,7,Rain,323
2013-9-26,47,43,39,37,34,31,86,73,60,30.11,30.01,29.83,10,10,4,17,9,21,0.03,7,Rain,315
2013-9-27,55,42,28,33,30,27,92,67,41,30.13,30.04,29.97,10,10,2,20,6,25,0.00,3,,257
2013-9-28,63,53,43,39,35,31,70,53,36,29.96,29.88,29.73,10,10,10,22,7,29,0.00,5,,194
2013-9-29,64,55,46,39,33,28,61,48,34,29.76,29.69,29.52,10,10,7,32,10,40,T,4,Rain,242
2013-9-30,58,50,42,43,31,22,71,48,24,29.97,29.73,29.54,10,10,2,31,12,45,0.10,2,Rain,259